Time;durP1;ratioP1;P1;durP2;ratioP2;P2;SDS_P1;SDS_P2;PMS_P1;PMS_P2;Temp;Humidity;BMP_temperature;BMP_pressure;BME280_temperature;BME280_humidity;BME280_pressure;Samples;Min_cycle;Max_cycle;Signal;HPM_P1;HPM_P2
2023/05/30 00:00:49;;;;;;;9.88;4.82;;;;;;;15.87;53.11;98601.88;4987471;28;20496;-76
2023/05/30 00:03:14;;;;;;;10.15;3.75;;;;;;;15.73;52.94;98605.34;4981669;28;20097;-76
2023/05/30 00:05:40;;;;;;;7.97;4.22;;;;;;;15.81;53.18;98593.97;4952688;28;20030;-76
2023/05/30 00:08:06;;;;;;;8.60;3.70;;;;;;;15.82;52.85;98601.84;4973332;28;20042;-74
2023/05/30 00:10:31;;;;;;;6.18;3.75;;;;;;;15.68;53.33;98608.88;4983705;28;20035;-74
2023/05/30 00:12:57;;;;;;;7.07;3.65;;;;;;;15.57;53.37;98604.50;4975088;28;20058;-74
2023/05/30 00:15:24;;;;;;;7.00;3.88;;;;;;;15.54;53.59;98598.78;4991605;28;20037;-74
2023/05/30 00:17:52;;;;;;;7.07;3.78;;;;;;;15.63;53.56;98602.63;4991687;28;20037;-76
2023/05/30 00:20:18;;;;;;;10.60;3.67;;;;;;;15.33;54.02;98597.88;4962546;28;20034;-76
2023/05/30 00:22:43;;;;;;;6.57;3.65;;;;;;;15.55;54.16;98603.13;4991268;28;20038;-75
2023/05/30 00:25:09;;;;;;;8.43;3.90;;;;;;;15.30;53.69;98601.13;5007962;28;20033;-76
2023/05/30 00:27:34;;;;;;;9.48;4.22;;;;;;;15.09;54.43;98599.38;4984295;28;20424;-76
2023/05/30 00:30:00;;;;;;;7.05;4.13;;;;;;;15.30;54.00;98601.13;4993236;28;20030;-77
2023/05/30 00:32:26;;;;;;;7.43;3.47;;;;;;;15.42;53.82;98595.47;4997484;28;20424;-76
2023/05/30 00:34:51;;;;;;;6.50;3.63;;;;;;;15.30;54.06;98592.97;4968836;28;20436;-75
2023/05/30 00:37:16;;;;;;;7.50;3.55;;;;;;;15.40;53.87;98590.31;4996995;28;20042;-76
2023/05/30 00:39:42;;;;;;;12.98;4.07;;;;;;;15.05;54.58;98603.69;4953288;28;20625;-76
2023/05/30 00:42:07;;;;;;;5.90;3.55;;;;;;;15.13;54.73;98595.88;4991193;28;20049;-76
2023/05/30 00:44:33;;;;;;;14.63;3.83;;;;;;;15.01;54.82;98591.72;4990023;28;20028;-76
2023/05/30 00:46:58;;;;;;;7.28;4.25;;;;;;;15.03;55.13;98595.81;4984170;28;20084;-76
2023/05/30 00:49:24;;;;;;;7.90;3.95;;;;;;;14.98;55.18;98587.63;4969421;28;20113;-74
2023/05/30 00:51:50;;;;;;;6.05;3.85;;;;;;;14.93;54.89;98584.09;4990724;28;20041;-73
2023/05/30 00:54:15;;;;;;;7.53;3.50;;;;;;;14.81;55.35;98597.03;4972836;28;20026;-73
2023/05/30 00:56:41;;;;;;;7.35;3.80;;;;;;;15.05;54.69;98585.50;4983991;28;20480;-73
2023/05/30 00:59:07;;;;;;;6.20;3.53;;;;;;;14.91;55.46;98600.63;4969301;28;20030;-74
2023/05/30 01:01:32;;;;;;;6.65;3.83;;;;;;;15.00;54.75;98604.50;4990051;28;20066;-74
2023/05/30 01:03:59;;;;;;;6.47;3.67;;;;;;;14.72;55.28;98598.63;4961125;28;20027;-74
2023/05/30 01:06:27;;;;;;;6.82;4.22;;;;;;;14.84;55.29;98600.03;4974424;28;20034;-73
2023/05/30 01:08:54;;;;;;;7.38;3.70;;;;;;;14.76;56.15;98595.13;4973181;28;20033;-73
2023/05/30 01:11:48;;;;;;;7.78;3.47;;;;;;;14.84;54.16;98607.38;4983744;28;20044;-73
2023/05/30 01:14:26;;;;;;;6.85;3.67;;;;;;;14.58;55.51;98602.84;5001041;28;20038;-73
2023/05/30 01:16:59;;;;;;;6.32;3.55;;;;;;;14.36;55.32;98611.06;4986155;28;20480;-73
2023/05/30 01:19:45;;;;;;;6.30;3.63;;;;;;;14.57;55.84;98612.88;4966302;28;20084;-73
2023/05/30 01:22:20;;;;;;;6.25;3.50;;;;;;;14.43;55.72;98600.81;4983372;28;20400;-73
2023/05/30 01:24:57;;;;;;;6.30;3.20;;;;;;;14.25;55.67;98595.78;4971147;28;20034;-75
2023/05/30 01:27:40;;;;;;;7.68;3.38;;;;;;;14.35;55.48;98606.75;4960573;28;20038;-76
2023/05/30 01:30:08;;;;;;;7.70;3.20;;;;;;;14.25;56.01;98603.91;4954256;28;20034;-76
2023/05/30 01:32:33;;;;;;;8.65;3.88;;;;;;;14.26;56.21;98600.94;4981908;28;20023;-79
2023/05/30 01:35:00;;;;;;;7.60;3.60;;;;;;;14.03;56.36;98589.59;4985799;28;20045;-79
2023/05/30 01:37:25;;;;;;;5.28;3.40;;;;;;;14.17;55.98;98598.94;5000894;28;20022;-78
2023/05/30 01:39:50;;;;;;;4.88;3.03;;;;;;;13.84;57.45;98587.25;4980605;28;20446;-75
2023/05/30 01:42:23;;;;;;;8.23;3.67;;;;;;;14.12;56.06;98598.94;4973416;28;20372;-76
2023/05/30 01:44:59;;;;;;;9.55;3.70;;;;;;;13.64;57.53;98594.38;4975327;28;20041;-75
2023/05/30 01:47:32;;;;;;;9.63;3.55;;;;;;;13.78;57.02;98599.13;4980099;28;20037;-75
2023/05/30 01:50:00;;;;;;;6.85;3.58;;;;;;;13.75;57.20;98599.63;4966969;28;20068;-75
2023/05/30 01:52:30;;;;;;;9.07;3.75;;;;;;;13.76;57.17;98595.88;5002903;28;20022;-76
2023/05/30 01:54:58;;;;;;;8.13;3.78;;;;;;;13.70;57.17;98590.63;4965404;28;20054;-76
2023/05/30 01:57:25;;;;;;;9.80;3.47;;;;;;;13.75;56.99;98610.47;4969314;28;20018;-76
2023/05/30 01:59:51;;;;;;;7.35;3.67;;;;;;;13.71;57.21;98598.50;4966861;28;20087;-76
2023/05/30 02:02:17;;;;;;;4.95;3.40;;;;;;;13.78;56.04;98593.72;4984316;28;20669;-76
2023/05/30 02:04:42;;;;;;;8.15;3.80;;;;;;;13.76;56.76;98595.88;4999914;28;20038;-76
2023/05/30 02:07:08;;;;;;;5.03;3.08;;;;;;;13.80;56.35;98596.97;4984467;28;20023;-76
2023/05/30 02:09:33;;;;;;;7.85;3.88;;;;;;;13.67;56.18;98597.41;4965346;28;20408;-76
2023/05/30 02:12:01;;;;;;;5.47;3.53;;;;;;;13.52;56.87;98586.38;4984443;28;20487;-77
2023/05/30 02:14:26;;;;;;;8.18;3.38;;;;;;;13.76;56.20;98601.28;4972041;28;20627;-76
2023/05/30 02:16:52;;;;;;;8.35;3.35;;;;;;;13.71;56.73;98603.09;4968067;28;20113;-75
2023/05/30 02:19:18;;;;;;;9.38;3.55;;;;;;;13.72;56.60;98597.41;4991453;28;20026;-77
2023/05/30 02:21:43;;;;;;;7.78;3.00;;;;;;;14.00;55.52;98607.22;5001643;28;20037;-76
2023/05/30 02:24:08;;;;;;;8.73;3.53;;;;;;;14.04;56.16;98612.91;4966264;28;20034;-76
2023/05/30 02:26:35;;;;;;;6.63;3.50;;;;;;;13.88;55.21;98608.44;4970326;28;20026;-75
2023/05/30 02:29:01;;;;;;;7.20;3.40;;;;;;;13.73;55.67;98607.19;4982302;28;20034;-74
2023/05/30 02:31:26;;;;;;;7.60;3.10;;;;;;;13.66;55.85;98606.56;4995323;28;20033;-74
2023/05/30 02:33:51;;;;;;;6.55;3.05;;;;;;;13.53;56.52;98615.09;5008181;28;20111;-75
2023/05/30 02:36:17;;;;;;;7.30;3.40;;;;;;;13.65;56.32;98615.75;5001722;28;20030;-75
2023/05/30 02:38:43;;;;;;;5.32;3.33;;;;;;;13.38;57.22;98612.19;4964163;28;20046;-75
2023/05/30 02:41:08;;;;;;;6.15;3.42;;;;;;;13.25;56.73;98623.41;4952435;28;20030;-75
2023/05/30 02:43:35;;;;;;;6.63;3.22;;;;;;;13.30;57.44;98618.06;4988672;28;20116;-75
2023/05/30 02:46:04;;;;;;;7.10;3.15;;;;;;;13.10;57.08;98612.38;4960012;28;20033;-74
2023/05/30 02:48:30;;;;;;;6.90;3.17;;;;;;;13.23;57.14;98606.59;4956672;28;20124;-75
2023/05/30 02:50:57;;;;;;;5.00;3.10;;;;;;;13.13;57.90;98606.47;4970646;28;20025;-75
2023/05/30 02:53:24;;;;;;;5.90;3.15;;;;;;;13.24;56.71;98610.94;4949776;28;20065;-75
2023/05/30 02:55:50;;;;;;;7.88;3.70;;;;;;;13.23;56.72;98612.03;4984069;28;20495;-75
2023/05/30 02:58:34;;;;;;;8.02;3.63;;;;;;;13.10;57.39;98606.97;5018726;23;20175;-73
2023/05/30 03:01:20;;;;;;;8.43;3.40;;;;;;;13.11;57.03;98608.59;4990725;28;20045;-73
2023/05/30 03:03:45;;;;;;;10.38;3.70;;;;;;;13.09;56.41;98616.16;5029377;28;20116;-73
2023/05/30 03:06:21;;;;;;;6.00;3.20;;;;;;;13.06;56.92;98612.06;5030445;28;20036;-73
2023/05/30 03:09:03;;;;;;;5.45;3.00;;;;;;;13.44;55.71;98613.88;4986003;28;20522;-73
2023/05/30 03:11:31;;;;;;;10.30;3.17;;;;;;;13.10;56.09;98620.47;5017003;28;20132;-73
2023/05/30 03:13:57;;;;;;;7.75;3.50;;;;;;;12.99;56.23;98622.22;5009163;28;20104;-73
2023/05/30 03:16:22;;;;;;;8.43;3.20;;;;;;;13.41;55.57;98629.81;4991514;28;20045;-73
2023/05/30 03:18:49;;;;;;;9.85;3.75;;;;;;;13.11;56.50;98619.44;4975134;28;20022;-73
2023/05/30 03:21:15;;;;;;;7.72;3.30;;;;;;;13.01;56.97;98624.66;4974982;28;20097;-73
2023/05/30 03:23:41;;;;;;;8.05;3.15;;;;;;;13.21;56.30;98630.34;4977931;28;20026;-72
2023/05/30 03:26:07;;;;;;;7.60;3.25;;;;;;;13.09;55.42;98632.38;4990768;28;20052;-73
2023/05/30 03:28:33;;;;;;;6.00;3.08;;;;;;;12.90;56.18;98633.69;5010508;28;20113;-73
2023/05/30 03:31:14;;;;;;;7.43;3.45;;;;;;;13.38;54.63;98636.53;5016332;28;20036;-73
2023/05/30 03:33:39;;;;;;;6.40;3.03;;;;;;;13.36;54.42;98635.97;4994728;28;20037;-72
2023/05/30 03:36:06;;;;;;;10.45;3.55;;;;;;;13.18;55.10;98641.69;4976193;28;20031;-72
2023/05/30 03:38:32;;;;;;;6.63;3.30;;;;;;;13.38;54.47;98636.53;5015633;28;20076;-72
2023/05/30 03:40:57;;;;;;;8.40;3.47;;;;;;;13.40;53.57;98642.50;4978021;28;20735;-72
2023/05/30 03:43:22;;;;;;;7.25;2.83;;;;;;;13.35;53.58;98637.03;4993924;28;20033;-73
2023/05/30 03:45:49;;;;;;;6.75;3.60;;;;;;;13.31;54.06;98641.31;4994209;28;20029;-72
2023/05/30 03:48:14;;;;;;;5.72;2.67;;;;;;;13.48;53.78;98644.78;5009807;28;20036;-72
2023/05/30 03:50:39;;;;;;;4.95;2.90;;;;;;;13.45;53.00;98639.88;5013944;28;20033;-72
2023/05/30 03:53:05;;;;;;;7.10;3.00;;;;;;;13.51;52.95;98635.34;5013479;28;20043;-72
2023/05/30 03:55:31;;;;;;;7.28;3.30;;;;;;;13.38;52.96;98641.94;5030074;28;20022;-72
2023/05/30 03:57:56;;;;;;;5.43;3.00;;;;;;;13.46;54.06;98644.22;4997039;28;20037;-72
2023/05/30 04:00:21;;;;;;;10.05;3.47;;;;;;;13.43;52.83;98643.91;5030086;28;20479;-74
2023/05/30 04:02:47;;;;;;;6.10;3.10;;;;;;;13.52;53.95;98636.97;5013769;28;20045;-74
2023/05/30 04:05:14;;;;;;;9.82;3.05;;;;;;;13.46;52.50;98644.22;5014189;28;20025;-74
2023/05/30 04:07:41;;;;;;;8.90;3.00;;;;;;;13.22;53.96;98648.25;5013495;28;20505;-74
2023/05/30 04:10:06;;;;;;;8.75;3.28;;;;;;;13.13;54.50;98647.03;5013585;28;20502;-74
2023/05/30 04:12:32;;;;;;;5.15;2.70;;;;;;;13.23;54.39;98636.38;5030110;28;20147;-74
2023/05/30 04:14:58;;;;;;;5.55;2.80;;;;;;;13.37;53.37;98640.31;5013446;28;20112;-74
2023/05/30 04:17:24;;;;;;;7.40;3.50;;;;;;;13.49;53.33;98654.53;5030959;28;20034;-73
2023/05/30 04:19:50;;;;;;;9.25;3.75;;;;;;;13.47;53.56;98656.69;4997124;28;20033;-74
2023/05/30 04:22:16;;;;;;;6.90;2.90;;;;;;;13.65;53.18;98642.81;5029798;28;20065;-73
2023/05/30 04:24:45;;;;;;;5.80;2.92;;;;;;;13.36;54.06;98660.31;5005449;28;20129;-73
2023/05/30 04:27:13;;;;;;;7.95;3.08;;;;;;;13.47;53.66;98662.09;4997078;28;20033;-73
2023/05/30 04:29:42;;;;;;;6.10;2.55;;;;;;;13.21;55.12;98662.03;5029553;28;20033;-73
2023/05/30 04:32:08;;;;;;;8.00;3.05;;;;;;;13.61;52.69;98663.34;4993504;28;20491;-73
2023/05/30 04:34:34;;;;;;;7.88;2.88;;;;;;;13.28;53.21;98671.56;4960130;28;20026;-73
2023/05/30 04:37:01;;;;;;;7.13;3.00;;;;;;;13.30;54.00;98671.34;4976433;28;20085;-73
2023/05/30 04:39:27;;;;;;;7.53;3.08;;;;;;;13.35;54.10;98674.91;4978825;28;20041;-73
2023/05/30 04:41:54;;;;;;;7.93;3.22;;;;;;;13.35;54.50;98671.41;4961703;28;20034;-73
2023/05/30 04:44:22;;;;;;;6.68;3.10;;;;;;;13.39;53.42;98675.25;4994100;28;20026;-73
2023/05/30 04:46:47;;;;;;;9.32;3.45;;;;;;;13.49;53.66;98669.97;4977862;28;20470;-73
2023/05/30 04:49:14;;;;;;;9.20;3.30;;;;;;;13.46;53.88;98671.28;4972356;28;20534;-74
2023/05/30 04:51:41;;;;;;;11.63;3.30;;;;;;;13.76;52.28;98670.84;5013394;28;20495;-73
2023/05/30 04:54:07;;;;;;;8.68;3.17;;;;;;;13.82;53.27;98681.47;4991838;28;20028;-73
2023/05/30 04:56:33;;;;;;;9.38;3.33;;;;;;;13.73;52.34;98677.56;5017040;28;20079;-73
2023/05/30 04:58:58;;;;;;;6.22;2.85;;;;;;;13.92;50.96;98674.53;5016760;28;20026;-74
2023/05/30 05:01:25;;;;;;;8.88;2.92;;;;;;;14.04;51.88;98677.91;5033046;28;20384;-74
2023/05/30 05:03:51;;;;;;;5.72;2.90;;;;;;;13.92;51.82;98682.66;5004959;28;20104;-74
2023/05/30 05:06:16;;;;;;;9.93;3.17;;;;;;;13.68;51.52;98680.22;5010096;28;20479;-74
2023/05/30 05:08:41;;;;;;;7.38;3.08;;;;;;;14.08;51.58;98674.44;4991907;28;20026;-74
2023/05/30 05:11:07;;;;;;;8.52;3.25;;;;;;;14.01;51.76;98681.13;4987064;28;20490;-74
2023/05/30 05:13:33;;;;;;;7.53;3.30;;;;;;;13.96;51.93;98681.06;5023147;28;20392;-74
2023/05/30 05:16:00;;;;;;;4.85;2.88;;;;;;;14.14;51.28;98680.75;5009950;28;20040;-74
2023/05/30 05:18:26;;;;;;;9.63;2.97;;;;;;;14.47;51.55;98684.06;4996688;28;20551;-74
2023/05/30 05:20:51;;;;;;;8.27;3.05;;;;;;;14.54;50.97;98683.84;4989537;28;20033;-74
2023/05/30 05:23:17;;;;;;;9.93;3.38;;;;;;;14.61;50.98;98689.88;5010214;28;20547;-74
2023/05/30 05:25:42;;;;;;;6.72;2.88;;;;;;;14.61;50.93;98695.28;5000977;28;20124;-74
2023/05/30 05:28:08;;;;;;;4.97;2.75;;;;;;;14.97;50.64;98689.09;5004987;28;20030;-74
2023/05/30 05:30:33;;;;;;;6.35;3.00;;;;;;;14.56;51.23;98695.28;4997491;28;20060;-74
2023/05/30 05:32:58;;;;;;;7.97;3.17;;;;;;;14.72;50.79;98702.47;5015821;28;20036;-74
2023/05/30 05:35:24;;;;;;;7.22;3.60;;;;;;;14.72;50.45;98707.88;4999631;28;20037;-74
2023/05/30 05:37:49;;;;;;;9.70;3.17;;;;;;;15.09;50.88;98692.44;5015543;28;20028;-74
2023/05/30 05:40:15;;;;;;;6.45;3.17;;;;;;;14.93;50.59;98693.41;5009020;28;20091;-74
2023/05/30 05:42:42;;;;;;;6.50;2.97;;;;;;;15.39;49.06;98697.22;5010964;28;20032;-74
2023/05/30 05:45:08;;;;;;;7.18;3.30;;;;;;;15.62;50.20;98701.44;5028382;28;20037;-74
2023/05/30 05:47:33;;;;;;;6.15;2.95;;;;;;;15.36;49.68;98702.34;5025877;28;20115;-74
2023/05/30 05:49:59;;;;;;;9.88;3.22;;;;;;;15.39;50.14;98707.25;5014985;28;20220;-74
2023/05/30 05:52:25;;;;;;;7.00;3.08;;;;;;;15.77;49.00;98704.25;5009302;28;20361;-74
2023/05/30 05:54:50;;;;;;;8.23;2.90;;;;;;;15.52;49.23;98701.41;4999716;28;20056;-74
2023/05/30 05:57:15;;;;;;;5.40;2.90;;;;;;;15.54;49.66;98704.69;5005459;28;20395;-74
2023/05/30 05:59:41;;;;;;;5.10;2.80;;;;;;;15.80;49.08;98709.13;4999468;28;20049;-74
2023/05/30 06:02:06;;;;;;;6.38;3.30;;;;;;;16.02;49.64;98706.22;5021726;28;20368;-74
2023/05/30 06:04:32;;;;;;;8.23;3.45;;;;;;;15.47;50.62;98717.66;4980840;28;20044;-74
2023/05/30 06:06:58;;;;;;;6.90;3.00;;;;;;;15.64;49.79;98710.13;4996310;28;20033;-74
2023/05/30 06:09:30;;;;;;;10.50;2.75;;;;;;;15.80;48.60;98711.84;5013171;28;20404;-74
2023/05/30 06:11:58;;;;;;;7.45;2.90;;;;;;;15.93;48.65;98711.38;5007004;28;20040;-74
2023/05/30 06:14:24;;;;;;;7.88;3.03;;;;;;;16.00;49.24;98709.22;4997380;28;20392;-74
2023/05/30 06:16:50;;;;;;;9.32;3.22;;;;;;;15.94;48.85;98709.47;5006711;28;20037;-74
2023/05/30 06:19:15;;;;;;;8.23;3.15;;;;;;;15.78;49.28;98706.69;5001918;28;20543;-73
2023/05/30 06:21:40;;;;;;;6.40;2.83;;;;;;;16.06;48.85;98697.28;5015416;28;20727;-74
2023/05/30 06:24:06;;;;;;;8.75;2.92;;;;;;;15.95;49.32;98703.75;5030953;28;20045;-74
2023/05/30 06:26:32;;;;;;;7.60;3.10;;;;;;;15.98;48.22;98699.69;5023491;28;20113;-74
2023/05/30 06:28:57;;;;;;;7.53;2.90;;;;;;;16.33;48.27;98711.50;4971472;28;20049;-74
2023/05/30 06:31:23;;;;;;;10.32;3.08;;;;;;;16.36;47.55;98708.22;4998541;28;20121;-74
2023/05/30 06:33:48;;;;;;;7.53;3.22;;;;;;;16.05;47.77;98701.09;5001223;28;20489;-74
2023/05/30 06:36:14;;;;;;;8.48;2.80;;;;;;;16.30;47.30;98714.75;5009657;28;20033;-74
2023/05/30 06:52:56;;;;;;;6.60;2.50;;;;;;;16.53;45.21;98702.56;5044143;28;20064;-74
2023/05/30 07:02:44;;;;;;;5.82;2.50;;;;;;;17.07;44.27;98719.19;5582652;23;20067;-74
2023/05/30 07:09:45;;;;;;;7.55;2.90;;;;;;;17.02;43.71;98706.38;5451995;23;20423;-74
2023/05/30 07:12:58;;;;;;;6.43;2.55;;;;;;;17.27;43.55;98725.41;4992808;28;20029;-75
2023/05/30 07:15:25;;;;;;;5.28;2.70;;;;;;;17.46;43.56;98703.84;5005388;28;20100;-75
2023/05/30 07:17:51;;;;;;;7.93;2.58;;;;;;;17.13;42.79;98701.72;4990036;28;20046;-75
2023/05/30 07:20:22;;;;;;;6.63;2.55;;;;;;;17.00;42.12;98697.69;4994622;28;20084;-74
2023/05/30 07:22:47;;;;;;;7.45;2.83;;;;;;;17.58;42.65;98731.66;5012055;28;20124;-75
2023/05/30 07:25:13;;;;;;;6.78;2.90;;;;;;;17.52;42.43;98738.22;4981727;28;20097;-74
2023/05/30 07:27:38;;;;;;;4.72;2.88;;;;;;;17.27;41.92;98730.03;4974888;28;20038;-75
2023/05/30 07:30:04;;;;;;;6.90;2.38;;;;;;;17.51;42.34;98733.84;4983567;28;20053;-75
2023/05/30 07:32:30;;;;;;;7.07;2.35;;;;;;;17.43;42.12;98728.94;4981881;28;20042;-75
2023/05/30 07:34:55;;;;;;;7.63;2.70;;;;;;;17.88;41.64;98726.09;4977617;28;20030;-74
2023/05/30 07:37:21;;;;;;;7.97;3.08;;;;;;;17.72;40.96;98727.25;4988188;28;20480;-74
2023/05/30 07:39:46;;;;;;;9.93;2.70;;;;;;;18.04;40.27;98728.78;5005059;28;20046;-75
2023/05/30 07:42:12;;;;;;;11.48;2.90;;;;;;;17.97;41.04;98722.81;4994414;28;20035;-75
2023/05/30 07:44:37;;;;;;;7.40;2.55;;;;;;;18.14;41.14;98720.53;4993702;28;20026;-74
2023/05/30 07:47:03;;;;;;;6.88;2.15;;;;;;;18.24;39.51;98725.94;4978341;28;20038;-74
2023/05/30 07:49:28;;;;;;;4.47;2.15;;;;;;;18.52;40.16;98719.81;4992206;28;20173;-75
2023/05/30 07:51:53;;;;;;;4.13;2.47;;;;;;;18.19;39.51;98715.88;4972961;28;20484;-74
2023/05/30 07:54:19;;;;;;;9.73;2.45;;;;;;;18.13;38.70;98710.75;4985838;28;20118;-74
2023/05/30 07:56:44;;;;;;;6.85;3.03;;;;;;;17.84;38.39;98711.41;4981095;28;20454;-75
2023/05/30 07:59:09;;;;;;;8.55;2.70;;;;;;;18.11;38.82;98708.28;4977907;28;20018;-74
2023/05/30 08:01:35;;;;;;;5.63;2.70;;;;;;;18.10;38.42;98711.28;5011683;28;20045;-75
2023/05/30 08:04:00;;;;;;;6.47;2.47;;;;;;;18.04;37.63;98717.88;4977341;28;20026;-75
2023/05/30 08:06:26;;;;;;;8.05;2.80;;;;;;;18.33;38.40;98716.06;4994069;28;20053;-75
2023/05/30 08:08:51;;;;;;;6.07;2.40;;;;;;;18.25;37.73;98713.94;4977598;28;20068;-75
2023/05/30 08:11:17;;;;;;;10.18;2.95;;;;;;;18.31;38.34;98712.81;4994077;28;20037;-75
2023/05/30 08:13:47;;;;;;;6.93;2.67;;;;;;;18.52;36.94;98714.34;4986247;28;20428;-75
2023/05/30 08:16:13;;;;;;;5.07;2.42;;;;;;;18.68;38.35;98718.59;5008953;28;20069;-75
2023/05/30 08:18:38;;;;;;;4.88;2.40;;;;;;;18.47;36.92;98717.94;4978505;28;20057;-75
2023/05/30 08:21:04;;;;;;;6.85;2.45;;;;;;;18.55;36.21;98714.59;4995695;28;20058;-74
2023/05/30 08:23:29;;;;;;;6.63;2.47;;;;;;;18.76;37.05;98709.81;5006989;28;20030;-75
2023/05/30 08:25:56;;;;;;;7.40;2.45;;;;;;;19.22;35.98;98708.31;5015318;28;20121;-74
2023/05/30 08:28:21;;;;;;;5.95;2.50;;;;;;;19.08;36.58;98723.75;4997349;28;20030;-75
2023/05/30 08:30:50;;;;;;;7.75;2.88;;;;;;;18.76;34.70;98722.66;5003758;28;20096;-75
2023/05/30 08:33:19;;;;;;;6.13;2.40;;;;;;;18.85;34.81;98713.56;4997069;28;20049;-75
2023/05/30 08:35:45;;;;;;;6.05;2.60;;;;;;;18.68;33.70;98718.59;5015136;28;20080;-75
2023/05/30 08:38:11;;;;;;;7.40;2.88;;;;;;;19.39;34.66;98734.41;4996753;28;20049;-74
2023/05/30 08:40:40;;;;;;;4.65;2.40;;;;;;;19.00;34.22;98729.81;4968348;28;20088;-75
2023/05/30 08:43:05;;;;;;;6.95;2.65;;;;;;;19.08;34.24;98729.22;4980222;28;20025;-75
2023/05/30 08:45:31;;;;;;;5.03;2.20;;;;;;;18.99;32.93;98728.19;4997045;28;20104;-75
2023/05/30 08:47:59;;;;;;;9.00;2.72;;;;;;;18.85;32.31;98724.47;4991444;28;20029;-74
2023/05/30 08:50:25;;;;;;;5.22;2.35;;;;;;;19.08;33.21;98729.22;5006529;28;20064;-75
2023/05/30 08:52:52;;;;;;;8.82;2.80;;;;;;;19.75;33.64;98730.19;4982745;28;20026;-74
2023/05/30 08:55:35;;;;;;;7.82;2.53;;;;;;;19.67;33.06;98726.19;4976946;28;20225;-75
2023/05/30 08:58:08;;;;;;;5.72;2.25;;;;;;;19.21;32.71;98723.06;4995824;23;20064;-75
2023/05/30 09:00:37;;;;;;;7.07;2.55;;;;;;;19.55;33.27;98727.69;5050518;28;20487;-75
2023/05/30 09:03:05;;;;;;;5.00;2.35;;;;;;;19.18;33.49;98728.31;5028583;28;20029;-75
2023/05/30 09:05:32;;;;;;;5.30;2.38;;;;;;;18.97;33.04;98735.84;5016751;28;20040;-75
2023/05/30 09:07:58;;;;;;;7.82;2.67;;;;;;;19.24;33.74;98727.97;5016144;28;20390;-75
2023/05/30 09:10:24;;;;;;;5.85;2.47;;;;;;;18.97;32.14;98735.84;5016536;28;20060;-76
2023/05/30 09:12:49;;;;;;;5.90;2.65;;;;;;;19.23;31.50;98725.50;4995131;28;20419;-80
2023/05/30 09:15:15;;;;;;;5.20;2.22;;;;;;;19.40;31.05;98727.84;5007431;28;20120;-76
2023/05/30 09:17:41;;;;;;;4.47;2.17;;;;;;;19.30;33.10;98725.97;5011504;28;20018;-76
2023/05/30 09:20:08;;;;;;;6.10;2.30;;;;;;;19.64;33.01;98720.50;5012890;28;20041;-76
2023/05/30 09:22:33;;;;;;;6.97;2.50;;;;;;;19.35;31.03;98720.47;5018764;28;20446;-75
2023/05/30 09:25:03;;;;;;;5.18;2.10;;;;;;;19.65;31.65;98711.19;5032307;28;20112;-75
2023/05/30 09:27:33;;;;;;;5.72;2.10;;;;;;;19.76;31.34;98723.63;5012858;28;20048;-76
2023/05/30 09:30:09;;;;;;;7.35;2.25;;;;;;;19.40;29.06;98714.19;5025218;28;20068;-77
2023/05/30 09:32:36;;;;;;;4.43;2.25;;;;;;;19.65;29.97;98730.31;5032694;28;20040;-77
2023/05/30 09:35:09;;;;;;;5.55;2.50;;;;;;;20.23;31.09;98712.69;5002102;28;20026;-75
2023/05/30 09:37:43;;;;;;;7.38;2.70;;;;;;;20.42;30.08;98721.69;5004359;28;20033;-75
2023/05/30 09:40:10;;;;;;;6.55;2.30;;;;;;;20.47;30.79;98724.38;5013476;28;20059;-75
2023/05/30 09:42:59;;;;;;;5.22;2.30;;;;;;;21.05;29.84;98719.38;5012620;28;20033;-75
2023/05/30 09:45:25;;;;;;;4.97;2.28;;;;;;;20.96;29.84;98720.31;5009195;28;20045;-75
2023/05/30 09:47:52;;;;;;;6.38;2.20;;;;;;;20.63;28.69;98723.03;5025962;28;20033;-75
2023/05/30 09:50:19;;;;;;;6.10;2.85;;;;;;;20.01;29.02;98720.59;5026414;28;20108;-75
2023/05/30 09:52:48;;;;;;;5.95;2.58;;;;;;;21.14;27.91;98723.06;4996125;28;20036;-75
2023/05/30 09:55:14;;;;;;;7.90;2.75;;;;;;;20.91;29.17;98720.44;5008956;28;20380;-75
2023/05/30 09:57:44;;;;;;;3.97;2.40;;;;;;;20.61;29.23;98719.78;5026692;28;20018;-78
2023/05/30 10:00:13;;;;;;;8.40;2.70;;;;;;;21.22;29.06;98725.13;5013828;28;20033;-78
2023/05/30 10:02:40;;;;;;;4.15;2.50;;;;;;;20.56;28.54;98717.13;5011110;28;20491;-78
2023/05/30 10:05:20;;;;;;;5.13;2.55;;;;;;;20.39;28.09;98716.84;5020947;28;20120;-78
2023/05/30 10:07:47;;;;;;;5.25;2.50;;;;;;;20.37;26.83;98719.06;5003697;28;20045;-78
2023/05/30 10:10:13;;;;;;;9.48;2.50;;;;;;;20.61;27.80;98710.75;5024232;28;20071;-78
2023/05/30 10:12:39;;;;;;;3.88;2.38;;;;;;;20.74;27.52;98711.94;5010863;28;20033;-77
2023/05/30 10:15:06;;;;;;;7.32;3.08;;;;;;;20.70;27.79;98716.38;5005920;28;20107;-77
2023/05/30 10:17:32;;;;;;;4.88;2.13;;;;;;;20.47;27.36;98713.41;5020576;28;20522;-77
2023/05/30 10:20:05;;;;;;;6.45;2.42;;;;;;;20.57;27.97;98718.75;5007501;28;20022;-78
2023/05/30 10:22:31;;;;;;;4.07;2.17;;;;;;;20.56;26.57;98717.13;4994121;28;20048;-78
2023/05/30 10:24:58;;;;;;;8.88;2.50;;;;;;;20.64;28.20;98719.19;5007484;28;20036;-78
2023/05/30 10:27:36;;;;;;;4.05;2.25;;;;;;;20.56;28.31;98717.13;5003662;28;20033;-78
2023/05/30 10:30:05;;;;;;;5.78;2.38;;;;;;;20.63;27.71;98714.81;5012195;28;20132;-78
2023/05/30 10:32:34;;;;;;;5.55;2.40;;;;;;;21.47;28.45;98710.16;5012129;28;20045;-77
2023/05/30 10:35:08;;;;;;;3.80;1.98;;;;;;;21.44;27.73;98699.00;5012320;28;20480;-78
2023/05/30 10:37:35;;;;;;;5.18;2.22;;;;;;;21.55;27.29;98706.72;5017008;28;20034;-78
2023/05/30 10:40:16;;;;;;;3.75;2.10;;;;;;;21.70;27.43;98714.66;5019734;28;20025;-78
2023/05/30 10:42:57;;;;;;;4.55;2.45;;;;;;;20.68;28.04;98717.50;5023143;28;20056;-78
2023/05/30 10:45:27;;;;;;;7.57;2.55;;;;;;;21.43;27.14;98708.31;5010258;28;20052;-78
2023/05/30 10:48:07;;;;;;;4.45;2.13;;;;;;;21.43;27.69;98698.16;5010057;28;20038;-78
2023/05/30 10:50:41;;;;;;;3.58;2.30;;;;;;;21.54;27.95;98696.06;5015648;28;20033;-78
2023/05/30 10:53:17;;;;;;;3.90;2.00;;;;;;;21.61;27.80;98708.22;5008879;28;20156;-78
2023/05/30 10:55:46;;;;;;;6.75;2.65;;;;;;;21.55;27.55;98701.22;5023815;28;20037;-77
2023/05/30 10:58:37;;;;;;;3.90;2.55;;;;;;;21.49;27.48;98698.91;5020061;28;20025;-79
2023/05/30 11:01:22;;;;;;;6.10;2.33;;;;;;;21.46;27.53;98683.88;5003489;28;20052;-78
2023/05/30 11:03:47;;;;;;;6.15;2.60;;;;;;;22.14;27.10;98699.53;5022534;28;20137;-71
2023/05/30 11:06:14;;;;;;;6.95;2.58;;;;;;;21.82;27.13;98690.25;5027427;28;20030;-77
2023/05/30 11:08:40;;;;;;;5.05;2.47;;;;;;;21.81;27.06;98683.19;5006539;28;20033;-78
2023/05/30 11:11:18;;;;;;;6.32;2.20;;;;;;;22.53;28.07;98688.75;4987780;28;20032;-78
2023/05/30 11:13:44;;;;;;;5.47;2.58;;;;;;;22.44;27.64;98696.13;5015642;28;20120;-78
2023/05/30 11:16:23;;;;;;;5.65;2.40;;;;;;;21.82;27.18;98690.25;5003362;28;20028;-77
2023/05/30 11:18:51;;;;;;;6.40;2.78;;;;;;;21.71;27.88;98685.28;5003735;28;20037;-78
2023/05/30 11:21:55;;;;;;;7.57;2.53;;;;;;;22.31;27.15;98681.28;5004218;28;20112;-77
2023/05/30 11:24:21;;;;;;;4.63;2.38;;;;;;;22.80;25.99;98682.41;5033543;28;20075;-78
2023/05/30 11:27:06;;;;;;;5.25;2.60;;;;;;;23.25;25.87;98679.28;5033789;28;20033;-78
2023/05/30 11:29:40;;;;;;;4.32;2.30;;;;;;;23.57;25.77;98674.63;5018247;28;20034;-78
2023/05/30 11:32:07;;;;;;;6.82;2.60;;;;;;;22.90;23.89;98671.97;5032957;28;20048;-77
2023/05/30 11:34:33;;;;;;;9.80;2.78;;;;;;;22.48;26.37;98669.66;5011852;28;20022;-77
2023/05/30 11:36:59;;;;;;;3.92;2.00;;;;;;;22.98;25.95;98662.16;5012812;28;20030;-77
2023/05/30 11:39:25;;;;;;;5.93;2.67;;;;;;;23.30;24.35;98662.66;5005493;28;20494;-77
2023/05/30 11:41:50;;;;;;;6.93;2.30;;;;;;;23.99;24.67;98665.72;5002140;28;20044;-77
2023/05/30 11:44:16;;;;;;;5.65;2.80;;;;;;;23.58;23.95;98654.25;5018293;28;20622;-77
2023/05/30 11:46:42;;;;;;;4.90;2.22;;;;;;;23.43;24.08;98657.44;5028257;28;20053;-77
2023/05/30 11:49:07;;;;;;;4.75;2.63;;;;;;;23.90;23.98;98662.09;5013237;28;20030;-77
2023/05/30 11:51:33;;;;;;;5.13;2.28;;;;;;;23.70;24.92;98657.19;5019278;28;20053;-77
2023/05/30 11:53:59;;;;;;;4.28;2.38;;;;;;;23.85;25.34;98659.53;4993953;28;20034;-77
2023/05/30 11:56:29;;;;;;;5.22;2.53;;;;;;;23.28;26.41;98667.69;5017118;28;20098;-76
2023/05/30 11:58:55;;;;;;;3.75;2.58;;;;;;;24.29;24.40;98653.81;5001609;28;20090;-77
2023/05/30 12:01:22;;;;;;;6.05;2.70;;;;;;;23.22;25.56;98651.66;5005098;28;20072;-75
2023/05/30 12:03:47;;;;;;;7.03;2.90;;;;;;;23.79;25.10;98660.78;5017074;28;20041;-76